createdAt,value
2018-09-09T00:03:32.941Z,0
2018-09-09T00:13:47.614Z,0
2018-09-09T00:24:02.724Z,0
2018-09-09T00:34:17.509Z,0
2018-09-09T00:44:31.823Z,0
2018-09-09T00:54:47.450Z,0
2018-09-09T01:05:01.742Z,0
2018-09-09T01:15:16.792Z,0
2018-09-09T01:25:31.810Z,0
2018-09-09T01:35:46.512Z,0
2018-09-09T01:46:01.195Z,0
2018-09-09T01:56:14.969Z,0
2018-09-09T02:06:28.937Z,0
2018-09-09T02:16:43.952Z,0
2018-09-09T02:26:58.160Z,0
2018-09-09T02:37:11.882Z,0
2018-09-09T02:47:26.086Z,0
2018-09-09T02:57:40.774Z,0
2018-09-09T03:07:56.457Z,0
2018-09-09T03:18:10.435Z,0
2018-09-09T03:28:24.834Z,0
2018-09-09T03:38:39.958Z,0
2018-09-09T03:48:53.825Z,0
2018-09-09T03:59:08.140Z,0
2018-09-09T04:09:22.097Z,0
2018-09-09T04:19:36.643Z,0
2018-09-09T04:29:52.401Z,0
2018-09-09T04:40:06.373Z,0
2018-09-09T04:50:20.401Z,5
2018-09-09T05:00:34.603Z,10
2018-09-09T05:10:49.337Z,25
2018-09-09T05:21:04.412Z,35
2018-09-09T05:31:19.104Z,40
2018-09-09T05:41:32.840Z,70
2018-09-09T05:51:47.155Z,105
2018-09-09T06:02:01.471Z,120
2018-09-09T06:12:15.428Z,180
2018-09-09T06:22:30.693Z,205
2018-09-09T06:32:45.838Z,255
2018-09-09T06:43:01.483Z,245
2018-09-09T06:53:15.245Z,375
2018-09-09T07:03:30.425Z,420
2018-09-09T07:13:46.192Z,420
2018-09-09T07:24:01.659Z,540
2018-09-09T07:34:16.880Z,495
2018-09-09T07:44:32.020Z,355
2018-09-09T07:54:46.296Z,285
2018-09-09T08:05:01.796Z,305
2018-09-09T08:15:15.959Z,480
2018-09-09T08:25:30.937Z,465
2018-09-09T08:35:46.330Z,640
2018-09-09T08:46:01.710Z,775
2018-09-09T08:56:16.549Z,810
2018-09-09T09:06:31.076Z,1045
2018-09-09T09:16:46.090Z,810
2018-09-09T09:27:01.100Z,1010
2018-09-09T09:37:16.271Z,900
2018-09-09T09:47:30.506Z,935
2018-09-09T09:57:45.422Z,935
2018-09-09T10:08:00.499Z,705
2018-09-09T10:18:15.750Z,920
2018-09-09T10:28:30.012Z,885
2018-09-09T10:38:45.256Z,1035
2018-09-09T10:49:00.421Z,1385
2018-09-09T10:59:15.387Z,960
2018-09-09T11:09:31.235Z,1415
2018-09-09T11:19:46.058Z,885
2018-09-09T11:30:00.375Z,1430
2018-09-09T11:40:15.206Z,1000
2018-09-09T11:50:29.554Z,1160
2018-09-09T12:00:43.713Z,1750
2018-09-09T12:10:59.134Z,1650
2018-09-09T12:21:13.085Z,1535
2018-09-09T12:31:27.212Z,1565
2018-09-09T12:41:42.668Z,1575
2018-09-09T12:51:58.452Z,1560
2018-09-09T13:02:12.974Z,1420
2018-09-09T13:12:28.507Z,1265
2018-09-09T13:22:43.173Z,825
2018-09-09T13:32:58.487Z,1490
2018-09-09T13:43:14.285Z,1440
2018-09-09T13:53:30.161Z,1360
2018-09-09T14:03:44.679Z,570
2018-09-09T14:14:00.423Z,580
2018-09-09T14:24:13.967Z,565
2018-09-09T14:34:29.361Z,680
2018-09-09T14:44:43.565Z,530
2018-09-09T14:54:58.458Z,475
2018-09-09T15:05:13.306Z,505
2018-09-09T15:15:27.594Z,355
2018-09-09T15:25:41.714Z,585
2018-09-09T15:35:56.688Z,400
2018-09-09T15:46:12.516Z,330
2018-09-09T15:56:27.847Z,295
2018-09-09T16:06:42.431Z,245
2018-09-09T16:16:57.141Z,230
2018-09-09T16:27:12.183Z,190
2018-09-09T16:37:26.182Z,170
2018-09-09T16:47:40.126Z,160
2018-09-09T16:57:55.739Z,150
2018-09-09T17:08:09.661Z,135
2018-09-09T17:18:25.340Z,90
2018-09-09T17:28:40.142Z,65
2018-09-09T17:38:55.858Z,45
2018-09-09T17:49:10.391Z,20
2018-09-09T17:59:25.155Z,5
2018-09-09T18:09:39.007Z,0
2018-09-09T18:19:53.065Z,0
2018-09-09T18:30:08.199Z,0
2018-09-09T18:40:22.874Z,0
2018-09-09T18:50:37.441Z,0
2018-09-09T19:00:51.307Z,0
2018-09-09T19:11:06.530Z,0
2018-09-09T19:21:22.105Z,0
2018-09-09T19:31:37.106Z,0
2018-09-09T19:41:50.807Z,0
2018-09-09T19:52:04.840Z,0
2018-09-09T20:02:19.835Z,0
2018-09-09T20:12:34.264Z,0
2018-09-09T20:22:49.119Z,0
2018-09-09T20:33:04.470Z,0
2018-09-09T20:43:20.205Z,0
2018-09-09T20:53:34.424Z,0
2018-09-09T21:03:48.178Z,0
2018-09-09T21:14:03.241Z,0
2018-09-09T21:24:18.758Z,0
2018-09-09T21:34:33.345Z,0
2018-09-09T21:44:48.744Z,0
2018-09-09T21:55:04.082Z,0
2018-09-09T22:05:18.064Z,0
2018-09-09T22:15:32.601Z,0
2018-09-09T22:25:46.525Z,0
2018-09-09T22:36:01.810Z,0
2018-09-09T22:46:16.757Z,0
2018-09-09T22:56:31.765Z,0
2018-09-09T23:06:47.221Z,0
2018-09-09T23:17:00.946Z,0
2018-09-09T23:27:14.900Z,0
2018-09-09T23:37:29.692Z,0
2018-09-09T23:47:43.793Z,0
2018-09-09T23:57:59.739Z,0
